sensor_id;sensor_type;location;lat;lon;timestamp;temperature;humidity
22578;DHT22;11455;52.390;13.028;2022-12-29T00:02:14;9.10;99.90
22578;DHT22;11455;52.390;13.028;2022-12-29T00:04:42;9.10;99.90
22578;DHT22;11455;52.390;13.028;2022-12-29T00:07:08;9.10;99.90
22578;DHT22;11455;52.390;13.028;2022-12-29T00:09:34;9.10;99.90
22578;DHT22;11455;52.390;13.028;2022-12-29T00:12:00;9.10;99.90
22578;DHT22;11455;52.390;13.028;2022-12-29T00:14:34;9.10;99.90
22578;DHT22;11455;52.390;13.028;2022-12-29T00:17:19;9.10;99.90
22578;DHT22;11455;52.390;13.028;2022-12-29T00:19:44;9.10;99.90
22578;DHT22;11455;52.390;13.028;2022-12-29T00:22:29;9.10;99.90
22578;DHT22;11455;52.390;13.028;2022-12-29T00:25:13;9.10;99.90
22578;DHT22;11455;52.390;13.028;2022-12-29T00:27:57;9.20;99.90
22578;DHT22;11455;52.390;13.028;2022-12-29T00:30:42;9.20;99.90
22578;DHT22;11455;52.390;13.028;2022-12-29T00:33:31;9.20;99.90
22578;DHT22;11455;52.390;13.028;2022-12-29T00:36:21;9.20;99.90
22578;DHT22;11455;52.390;13.028;2022-12-29T00:38:57;9.20;99.90
22578;DHT22;11455;52.390;13.028;2022-12-29T00:41:42;9.20;99.90
22578;DHT22;11455;52.390;13.028;2022-12-29T00:44:26;9.30;99.90
22578;DHT22;11455;52.390;13.028;2022-12-29T00:47:15;9.20;99.90
22578;DHT22;11455;52.390;13.028;2022-12-29T00:49:41;9.20;99.90
22578;DHT22;11455;52.390;13.028;2022-12-29T00:52:10;9.20;99.90
22578;DHT22;11455;52.390;13.028;2022-12-29T00:54:44;9.20;99.90
22578;DHT22;11455;52.390;13.028;2022-12-29T00:57:13;9.20;99.90
22578;DHT22;11455;52.390;13.028;2022-12-29T00:59:39;9.20;99.90
22578;DHT22;11455;52.390;13.028;2022-12-29T01:02:07;9.30;99.90
22578;DHT22;11455;52.390;13.028;2022-12-29T01:04:33;9.30;99.90
22578;DHT22;11455;52.390;13.028;2022-12-29T01:06:58;9.30;99.90
22578;DHT22;11455;52.390;13.028;2022-12-29T01:09:24;9.30;99.90
22578;DHT22;11455;52.390;13.028;2022-12-29T01:12:09;9.30;99.90
22578;DHT22;11455;52.390;13.028;2022-12-29T01:14:34;9.30;99.90
22578;DHT22;11455;52.390;13.028;2022-12-29T01:17:00;9.30;99.90
22578;DHT22;11455;52.390;13.028;2022-12-29T01:19:26;9.30;99.90
22578;DHT22;11455;52.390;13.028;2022-12-29T01:21:52;9.30;99.90
22578;DHT22;11455;52.390;13.028;2022-12-29T01:24:18;9.30;99.90
22578;DHT22;11455;52.390;13.028;2022-12-29T01:26:45;9.40;99.90
22578;DHT22;11455;52.390;13.028;2022-12-29T01:29:11;9.40;99.90
22578;DHT22;11455;52.390;13.028;2022-12-29T01:31:37;9.30;99.90
22578;DHT22;11455;52.390;13.028;2022-12-29T01:34:05;9.30;99.90
22578;DHT22;11455;52.390;13.028;2022-12-29T01:36:37;9.40;99.90
22578;DHT22;11455;52.390;13.028;2022-12-29T01:39:03;9.40;99.90
22578;DHT22;11455;52.390;13.028;2022-12-29T01:41:29;9.30;99.90
22578;DHT22;11455;52.390;13.028;2022-12-29T01:43:56;9.30;99.90
22578;DHT22;11455;52.390;13.028;2022-12-29T01:48:55;9.30;99.90
22578;DHT22;11455;52.390;13.028;2022-12-29T01:51:24;9.40;99.90
22578;DHT22;11455;52.390;13.028;2022-12-29T01:53:50;9.40;99.90
22578;DHT22;11455;52.390;13.028;2022-12-29T01:56:17;9.40;99.90
22578;DHT22;11455;52.390;13.028;2022-12-29T01:58:44;9.30;99.90
22578;DHT22;11455;52.390;13.028;2022-12-29T02:01:11;9.30;99.90
22578;DHT22;11455;52.390;13.028;2022-12-29T02:03:37;9.40;99.90
22578;DHT22;11455;52.390;13.028;2022-12-29T02:06:20;9.40;99.90
22578;DHT22;11455;52.390;13.028;2022-12-29T02:08:47;9.50;99.90
22578;DHT22;11455;52.390;13.028;2022-12-29T02:11:13;9.50;99.90
22578;DHT22;11455;52.390;13.028;2022-12-29T02:13:41;9.50;99.90
22578;DHT22;11455;52.390;13.028;2022-12-29T02:18:54;9.60;99.90
22578;DHT22;11455;52.390;13.028;2022-12-29T02:24:18;9.70;99.90
22578;DHT22;11455;52.390;13.028;2022-12-29T02:35:01;9.80;99.90
22578;DHT22;11455;52.390;13.028;2022-12-29T02:37:30;9.80;99.90
22578;DHT22;11455;52.390;13.028;2022-12-29T02:40:35;9.80;99.90
22578;DHT22;11455;52.390;13.028;2022-12-29T02:47:54;9.90;99.90
22578;DHT22;11455;52.390;13.028;2022-12-29T02:50:39;9.90;99.90
22578;DHT22;11455;52.390;13.028;2022-12-29T02:53:07;9.90;99.90
22578;DHT22;11455;52.390;13.028;2022-12-29T02:55:34;10.00;99.90
22578;DHT22;11455;52.390;13.028;2022-12-29T02:58:20;10.00;99.90
22578;DHT22;11455;52.390;13.028;2022-12-29T03:03:28;9.90;99.90
22578;DHT22;11455;52.390;13.028;2022-12-29T03:06:17;10.00;99.90
22578;DHT22;11455;52.390;13.028;2022-12-29T03:09:07;10.00;99.90
22578;DHT22;11455;52.390;13.028;2022-12-29T03:11:48;10.00;99.90
22578;DHT22;11455;52.390;13.028;2022-12-29T03:18:07;10.00;99.90
22578;DHT22;11455;52.390;13.028;2022-12-29T03:20:40;10.00;99.90
22578;DHT22;11455;52.390;13.028;2022-12-29T03:23:08;10.00;99.90
22578;DHT22;11455;52.390;13.028;2022-12-29T03:25:35;10.00;99.90
22578;DHT22;11455;52.390;13.028;2022-12-29T03:28:07;10.00;99.90
22578;DHT22;11455;52.390;13.028;2022-12-29T03:30:40;10.00;99.90
22578;DHT22;11455;52.390;13.028;2022-12-29T03:33:13;10.00;99.90
22578;DHT22;11455;52.390;13.028;2022-12-29T03:35:45;10.00;99.90
22578;DHT22;11455;52.390;13.028;2022-12-29T03:38:33;10.00;99.90
22578;DHT22;11455;52.390;13.028;2022-12-29T03:41:00;10.00;99.90
22578;DHT22;11455;52.390;13.028;2022-12-29T03:43:29;10.00;99.90
22578;DHT22;11455;52.390;13.028;2022-12-29T03:45:55;10.10;99.90
22578;DHT22;11455;52.390;13.028;2022-12-29T03:48:21;10.10;99.90
22578;DHT22;11455;52.390;13.028;2022-12-29T03:50:48;10.10;99.90
22578;DHT22;11455;52.390;13.028;2022-12-29T03:53:14;10.10;99.90
22578;DHT22;11455;52.390;13.028;2022-12-29T03:55:41;10.20;99.90
22578;DHT22;11455;52.390;13.028;2022-12-29T03:58:07;10.20;99.90
22578;DHT22;11455;52.390;13.028;2022-12-29T04:00:47;10.20;99.90
22578;DHT22;11455;52.390;13.028;2022-12-29T04:03:13;10.20;99.90
22578;DHT22;11455;52.390;13.028;2022-12-29T04:05:42;10.20;99.90
22578;DHT22;11455;52.390;13.028;2022-12-29T04:08:09;10.20;99.90
22578;DHT22;11455;52.390;13.028;2022-12-29T04:10:35;10.20;99.90
22578;DHT22;11455;52.390;13.028;2022-12-29T04:13:04;10.20;99.90
22578;DHT22;11455;52.390;13.028;2022-12-29T04:15:30;10.20;99.90
22578;DHT22;11455;52.390;13.028;2022-12-29T04:17:56;10.20;99.90
22578;DHT22;11455;52.390;13.028;2022-12-29T04:20:21;10.20;99.90
22578;DHT22;11455;52.390;13.028;2022-12-29T04:23:06;10.20;99.90
22578;DHT22;11455;52.390;13.028;2022-12-29T04:25:34;10.30;99.90
22578;DHT22;11455;52.390;13.028;2022-12-29T04:28:01;10.30;99.90
22578;DHT22;11455;52.390;13.028;2022-12-29T04:30:42;10.30;99.90
22578;DHT22;11455;52.390;13.028;2022-12-29T04:33:15;10.40;99.90
22578;DHT22;11455;52.390;13.028;2022-12-29T04:35:42;10.40;99.90
22578;DHT22;11455;52.390;13.028;2022-12-29T04:38:08;10.40;99.90
22578;DHT22;11455;52.390;13.028;2022-12-29T04:40:34;10.50;99.90
22578;DHT22;11455;52.390;13.028;2022-12-29T04:43:00;10.50;99.90
22578;DHT22;11455;52.390;13.028;2022-12-29T04:45:26;10.50;99.90
22578;DHT22;11455;52.390;13.028;2022-12-29T04:47:58;10.50;99.90
22578;DHT22;11455;52.390;13.028;2022-12-29T04:50:43;10.50;99.90
22578;DHT22;11455;52.390;13.028;2022-12-29T04:53:20;10.50;99.90
22578;DHT22;11455;52.390;13.028;2022-12-29T04:55:50;10.50;99.90
22578;DHT22;11455;52.390;13.028;2022-12-29T04:58:16;10.50;99.90
22578;DHT22;11455;52.390;13.028;2022-12-29T05:00:42;10.50;99.90
22578;DHT22;11455;52.390;13.028;2022-12-29T05:03:08;10.50;99.90
22578;DHT22;11455;52.390;13.028;2022-12-29T05:05:35;10.60;99.90
22578;DHT22;11455;52.390;13.028;2022-12-29T05:08:00;10.60;99.90
22578;DHT22;11455;52.390;13.028;2022-12-29T05:10:26;10.60;99.90
22578;DHT22;11455;52.390;13.028;2022-12-29T05:12:55;10.60;99.90
22578;DHT22;11455;52.390;13.028;2022-12-29T05:15:22;10.50;99.90
22578;DHT22;11455;52.390;13.028;2022-12-29T05:17:47;10.60;99.90
22578;DHT22;11455;52.390;13.028;2022-12-29T05:20:13;10.60;99.90
22578;DHT22;11455;52.390;13.028;2022-12-29T05:22:39;10.60;99.90
22578;DHT22;11455;52.390;13.028;2022-12-29T05:25:05;10.60;99.90
22578;DHT22;11455;52.390;13.028;2022-12-29T05:27:38;10.60;99.90
22578;DHT22;11455;52.390;13.028;2022-12-29T05:30:39;10.60;99.90
22578;DHT22;11455;52.390;13.028;2022-12-29T05:33:06;10.60;99.90
22578;DHT22;11455;52.390;13.028;2022-12-29T05:35:33;10.70;99.90
22578;DHT22;11455;52.390;13.028;2022-12-29T05:38:04;10.70;99.90
22578;DHT22;11455;52.390;13.028;2022-12-29T05:40:33;10.70;99.90
22578;DHT22;11455;52.390;13.028;2022-12-29T05:43:03;10.70;99.90
22578;DHT22;11455;52.390;13.028;2022-12-29T05:45:39;10.70;99.90
22578;DHT22;11455;52.390;13.028;2022-12-29T05:48:25;10.80;99.90
22578;DHT22;11455;52.390;13.028;2022-12-29T05:51:09;10.80;99.90
22578;DHT22;11455;52.390;13.028;2022-12-29T05:53:50;10.80;99.90
22578;DHT22;11455;52.390;13.028;2022-12-29T05:56:19;10.80;99.90
22578;DHT22;11455;52.390;13.028;2022-12-29T05:58:51;10.80;99.90
22578;DHT22;11455;52.390;13.028;2022-12-29T06:01:16;10.80;99.90
22578;DHT22;11455;52.390;13.028;2022-12-29T06:03:43;10.80;99.90
22578;DHT22;11455;52.390;13.028;2022-12-29T06:06:09;10.80;99.90
22578;DHT22;11455;52.390;13.028;2022-12-29T06:08:36;10.80;99.90
22578;DHT22;11455;52.390;13.028;2022-12-29T06:11:02;10.80;99.90
22578;DHT22;11455;52.390;13.028;2022-12-29T06:13:28;10.80;99.90
22578;DHT22;11455;52.390;13.028;2022-12-29T06:15:55;10.90;99.90
22578;DHT22;11455;52.390;13.028;2022-12-29T06:18:21;10.90;99.90
22578;DHT22;11455;52.390;13.028;2022-12-29T06:20:47;10.90;99.90
22578;DHT22;11455;52.390;13.028;2022-12-29T06:23:14;10.90;99.90
22578;DHT22;11455;52.390;13.028;2022-12-29T06:25:41;10.90;99.90
22578;DHT22;11455;52.390;13.028;2022-12-29T06:28:07;10.90;99.90
22578;DHT22;11455;52.390;13.028;2022-12-29T06:30:33;10.90;99.90
22578;DHT22;11455;52.390;13.028;2022-12-29T06:33:00;10.90;99.90
22578;DHT22;11455;52.390;13.028;2022-12-29T06:35:25;10.90;99.90
22578;DHT22;11455;52.390;13.028;2022-12-29T06:37:51;11.00;99.90
22578;DHT22;11455;52.390;13.028;2022-12-29T06:40:17;10.90;99.90
22578;DHT22;11455;52.390;13.028;2022-12-29T06:43:03;11.00;99.90
22578;DHT22;11455;52.390;13.028;2022-12-29T06:45:42;10.90;99.90
22578;DHT22;11455;52.390;13.028;2022-12-29T06:48:07;11.00;99.90
22578;DHT22;11455;52.390;13.028;2022-12-29T06:50:33;11.00;99.90
22578;DHT22;11455;52.390;13.028;2022-12-29T06:52:59;11.00;99.90
22578;DHT22;11455;52.390;13.028;2022-12-29T06:55:24;11.00;99.90
22578;DHT22;11455;52.390;13.028;2022-12-29T06:57:53;11.00;99.90
22578;DHT22;11455;52.390;13.028;2022-12-29T07:00:22;11.00;99.90
22578;DHT22;11455;52.390;13.028;2022-12-29T07:02:48;11.00;99.90
22578;DHT22;11455;52.390;13.028;2022-12-29T07:05:14;11.00;99.90
22578;DHT22;11455;52.390;13.028;2022-12-29T07:07:39;11.00;99.90
22578;DHT22;11455;52.390;13.028;2022-12-29T07:10:08;11.00;99.90
22578;DHT22;11455;52.390;13.028;2022-12-29T07:12:33;10.90;99.90
22578;DHT22;11455;52.390;13.028;2022-12-29T07:14:59;10.90;99.90
22578;DHT22;11455;52.390;13.028;2022-12-29T07:17:25;10.90;99.90
22578;DHT22;11455;52.390;13.028;2022-12-29T07:19:50;10.90;99.90
22578;DHT22;11455;52.390;13.028;2022-12-29T07:22:21;10.90;99.90
22578;DHT22;11455;52.390;13.028;2022-12-29T07:24:47;10.90;99.90
22578;DHT22;11455;52.390;13.028;2022-12-29T07:27:15;11.00;99.90
22578;DHT22;11455;52.390;13.028;2022-12-29T07:29:41;10.90;99.90
22578;DHT22;11455;52.390;13.028;2022-12-29T07:32:07;10.90;99.90
22578;DHT22;11455;52.390;13.028;2022-12-29T07:34:32;10.90;99.90
22578;DHT22;11455;52.390;13.028;2022-12-29T07:36:58;10.80;99.90
22578;DHT22;11455;52.390;13.028;2022-12-29T07:39:24;10.80;99.90
22578;DHT22;11455;52.390;13.028;2022-12-29T07:41:50;10.80;99.90
22578;DHT22;11455;52.390;13.028;2022-12-29T07:44:18;10.80;99.90
22578;DHT22;11455;52.390;13.028;2022-12-29T07:47:16;10.70;99.90
22578;DHT22;11455;52.390;13.028;2022-12-29T07:49:42;10.70;99.90
22578;DHT22;11455;52.390;13.028;2022-12-29T07:52:08;10.70;99.90
22578;DHT22;11455;52.390;13.028;2022-12-29T07:54:34;10.70;99.90
22578;DHT22;11455;52.390;13.028;2022-12-29T07:56:59;10.70;99.90
22578;DHT22;11455;52.390;13.028;2022-12-29T07:59:25;10.70;99.90
22578;DHT22;11455;52.390;13.028;2022-12-29T08:01:53;10.70;99.90
22578;DHT22;11455;52.390;13.028;2022-12-29T08:04:19;10.70;99.90
22578;DHT22;11455;52.390;13.028;2022-12-29T08:06:45;10.70;99.90
22578;DHT22;11455;52.390;13.028;2022-12-29T08:09:11;10.70;99.90
22578;DHT22;11455;52.390;13.028;2022-12-29T08:11:36;10.80;99.90
22578;DHT22;11455;52.390;13.028;2022-12-29T08:14:02;10.80;99.90
22578;DHT22;11455;52.390;13.028;2022-12-29T08:16:28;10.80;99.90
22578;DHT22;11455;52.390;13.028;2022-12-29T08:18:54;10.80;99.90
22578;DHT22;11455;52.390;13.028;2022-12-29T08:21:19;10.80;99.90
22578;DHT22;11455;52.390;13.028;2022-12-29T08:23:45;10.80;99.90
22578;DHT22;11455;52.390;13.028;2022-12-29T08:26:12;10.80;99.90
22578;DHT22;11455;52.390;13.028;2022-12-29T08:28:38;10.80;99.90
22578;DHT22;11455;52.390;13.028;2022-12-29T08:31:03;10.80;99.90
22578;DHT22;11455;52.390;13.028;2022-12-29T08:33:29;10.80;99.90
22578;DHT22;11455;52.390;13.028;2022-12-29T08:36:01;10.80;99.90
22578;DHT22;11455;52.390;13.028;2022-12-29T08:38:28;10.80;99.90
22578;DHT22;11455;52.390;13.028;2022-12-29T08:40:54;10.80;99.90
22578;DHT22;11455;52.390;13.028;2022-12-29T08:43:20;10.90;99.90
22578;DHT22;11455;52.390;13.028;2022-12-29T08:45:46;10.90;99.90
22578;DHT22;11455;52.390;13.028;2022-12-29T08:48:11;10.90;99.90
22578;DHT22;11455;52.390;13.028;2022-12-29T08:50:37;10.90;99.90
22578;DHT22;11455;52.390;13.028;2022-12-29T08:53:05;10.90;99.90
22578;DHT22;11455;52.390;13.028;2022-12-29T08:55:33;10.90;99.90
22578;DHT22;11455;52.390;13.028;2022-12-29T08:58:00;10.90;99.90
22578;DHT22;11455;52.390;13.028;2022-12-29T09:00:26;11.00;99.90
22578;DHT22;11455;52.390;13.028;2022-12-29T09:02:52;10.90;99.90
22578;DHT22;11455;52.390;13.028;2022-12-29T09:05:17;10.90;99.90
22578;DHT22;11455;52.390;13.028;2022-12-29T09:07:43;10.90;99.90
22578;DHT22;11455;52.390;13.028;2022-12-29T09:10:09;11.00;99.90
22578;DHT22;11455;52.390;13.028;2022-12-29T09:12:35;11.00;99.90
22578;DHT22;11455;52.390;13.028;2022-12-29T09:15:00;11.00;99.90
22578;DHT22;11455;52.390;13.028;2022-12-29T09:17:26;11.00;99.90
22578;DHT22;11455;52.390;13.028;2022-12-29T09:20:19;11.00;99.90
22578;DHT22;11455;52.390;13.028;2022-12-29T09:22:45;11.00;99.90
22578;DHT22;11455;52.390;13.028;2022-12-29T09:25:13;11.10;99.90
22578;DHT22;11455;52.390;13.028;2022-12-29T09:27:41;11.10;99.90
22578;DHT22;11455;52.390;13.028;2022-12-29T09:30:08;11.20;99.90
22578;DHT22;11455;52.390;13.028;2022-12-29T09:32:34;11.20;99.90
22578;DHT22;11455;52.390;13.028;2022-12-29T09:35:00;11.20;99.90
22578;DHT22;11455;52.390;13.028;2022-12-29T09:37:26;11.20;99.90
22578;DHT22;11455;52.390;13.028;2022-12-29T09:39:54;11.30;99.90
22578;DHT22;11455;52.390;13.028;2022-12-29T09:45:06;11.40;99.90
22578;DHT22;11455;52.390;13.028;2022-12-29T09:47:35;11.40;99.90
22578;DHT22;11455;52.390;13.028;2022-12-29T09:52:37;11.50;99.90
22578;DHT22;11455;52.390;13.028;2022-12-29T09:55:10;11.70;99.90
22578;DHT22;11455;52.390;13.028;2022-12-29T10:00:37;11.80;99.90
22578;DHT22;11455;52.390;13.028;2022-12-29T10:03:09;11.90;99.90
22578;DHT22;11455;52.390;13.028;2022-12-29T10:05:44;12.00;99.90
22578;DHT22;11455;52.390;13.028;2022-12-29T10:10:38;12.10;99.90
22578;DHT22;11455;52.390;13.028;2022-12-29T10:15:57;12.20;99.90
22578;DHT22;11455;52.390;13.028;2022-12-29T10:18:24;12.30;99.90
22578;DHT22;11455;52.390;13.028;2022-12-29T10:25:54;12.40;99.90
22578;DHT22;11455;52.390;13.028;2022-12-29T10:28:21;12.40;99.90
22578;DHT22;11455;52.390;13.028;2022-12-29T10:30:48;12.40;99.90
22578;DHT22;11455;52.390;13.028;2022-12-29T10:33:15;12.40;99.90
22578;DHT22;11455;52.390;13.028;2022-12-29T10:35:43;12.40;99.90
22578;DHT22;11455;52.390;13.028;2022-12-29T10:45:42;12.50;99.90
22578;DHT22;11455;52.390;13.028;2022-12-29T10:48:11;12.50;99.90
22578;DHT22;11455;52.390;13.028;2022-12-29T10:50:39;12.50;99.90
22578;DHT22;11455;52.390;13.028;2022-12-29T10:53:08;12.50;99.90
22578;DHT22;11455;52.390;13.028;2022-12-29T10:55:38;12.50;99.90
22578;DHT22;11455;52.390;13.028;2022-12-29T10:58:11;12.50;99.90
22578;DHT22;11455;52.390;13.028;2022-12-29T11:00:37;12.60;99.90
22578;DHT22;11455;52.390;13.028;2022-12-29T11:05:57;12.50;99.90
22578;DHT22;11455;52.390;13.028;2022-12-29T11:08:25;12.50;99.90
22578;DHT22;11455;52.390;13.028;2022-12-29T11:10:59;12.40;99.90
22578;DHT22;11455;52.390;13.028;2022-12-29T11:13:26;12.40;99.90
22578;DHT22;11455;52.390;13.028;2022-12-29T11:15:52;12.30;99.90
22578;DHT22;11455;52.390;13.028;2022-12-29T11:18:25;12.30;99.90
22578;DHT22;11455;52.390;13.028;2022-12-29T11:20:55;12.30;99.90
22578;DHT22;11455;52.390;13.028;2022-12-29T11:26:05;12.20;99.90
22578;DHT22;11455;52.390;13.028;2022-12-29T11:28:31;12.10;99.90
22578;DHT22;11455;52.390;13.028;2022-12-29T11:30:59;12.10;99.90
22578;DHT22;11455;52.390;13.028;2022-12-29T11:33:28;12.00;99.90
22578;DHT22;11455;52.390;13.028;2022-12-29T11:35:57;12.00;99.90
22578;DHT22;11455;52.390;13.028;2022-12-29T11:38:24;12.00;99.90
22578;DHT22;11455;52.390;13.028;2022-12-29T11:40:51;11.90;99.90
22578;DHT22;11455;52.390;13.028;2022-12-29T11:43:50;11.90;99.90
22578;DHT22;11455;52.390;13.028;2022-12-29T11:46:17;11.90;99.90
22578;DHT22;11455;52.390;13.028;2022-12-29T11:48:46;11.80;99.90
22578;DHT22;11455;52.390;13.028;2022-12-29T11:51:15;11.80;99.90
22578;DHT22;11455;52.390;13.028;2022-12-29T11:53:47;11.70;1.00
22578;DHT22;11455;52.390;13.028;2022-12-29T11:56:17;11.60;1.00
22578;DHT22;11455;52.390;13.028;2022-12-29T11:58:44;11.50;1.00
22578;DHT22;11455;52.390;13.028;2022-12-29T12:01:15;11.40;1.00
22578;DHT22;11455;52.390;13.028;2022-12-29T12:03:44;11.40;1.00
22578;DHT22;11455;52.390;13.028;2022-12-29T12:06:12;11.30;1.00
22578;DHT22;11455;52.390;13.028;2022-12-29T12:08:53;11.30;1.00
22578;DHT22;11455;52.390;13.028;2022-12-29T12:11:26;11.30;1.00
22578;DHT22;11455;52.390;13.028;2022-12-29T12:17:01;11.30;1.00
22578;DHT22;11455;52.390;13.028;2022-12-29T12:22:45;11.30;1.00
22578;DHT22;11455;52.390;13.028;2022-12-29T12:24:55;11.30;1.00
22578;DHT22;11455;52.390;13.028;2022-12-29T12:27:26;11.30;1.00
22578;DHT22;11455;52.390;13.028;2022-12-29T12:30:03;11.30;1.00
22578;DHT22;11455;52.390;13.028;2022-12-29T12:34:59;11.30;1.00
22578;DHT22;11455;52.390;13.028;2022-12-29T12:58:37;11.90;99.90
22578;DHT22;11455;52.390;13.028;2022-12-29T13:06:41;12.20;99.90
22578;DHT22;11455;52.390;13.028;2022-12-29T13:22:25;12.30;99.90
22578;DHT22;11455;52.390;13.028;2022-12-29T13:25:07;12.30;99.90
22578;DHT22;11455;52.390;13.028;2022-12-29T13:35:20;12.10;99.90
22578;DHT22;11455;52.390;13.028;2022-12-29T13:38:00;12.10;99.90
22578;DHT22;11455;52.390;13.028;2022-12-29T13:40:30;12.10;99.90
22578;DHT22;11455;52.390;13.028;2022-12-29T13:42:59;12.10;99.90
22578;DHT22;11455;52.390;13.028;2022-12-29T13:45:26;12.10;99.90
22578;DHT22;11455;52.390;13.028;2022-12-29T13:48:02;12.10;99.90
22578;DHT22;11455;52.390;13.028;2022-12-29T13:50:29;12.10;99.90
22578;DHT22;11455;52.390;13.028;2022-12-29T13:55:49;12.00;99.90
22578;DHT22;11455;52.390;13.028;2022-12-29T14:06:27;11.90;99.90
22578;DHT22;11455;52.390;13.028;2022-12-29T14:09:03;11.90;99.90
22578;DHT22;11455;52.390;13.028;2022-12-29T14:11:31;11.90;99.90
22578;DHT22;11455;52.390;13.028;2022-12-29T14:13:57;11.80;99.90
22578;DHT22;11455;52.390;13.028;2022-12-29T14:16:28;11.80;99.90
22578;DHT22;11455;52.390;13.028;2022-12-29T14:18:57;11.80;99.90
22578;DHT22;11455;52.390;13.028;2022-12-29T14:21:28;11.70;1.00
22578;DHT22;11455;52.390;13.028;2022-12-29T14:26:41;11.70;1.00
22578;DHT22;11455;52.390;13.028;2022-12-29T14:31:53;11.70;1.00
22578;DHT22;11455;52.390;13.028;2022-12-29T14:37:00;11.80;99.90
22578;DHT22;11455;52.390;13.028;2022-12-29T14:42:14;11.80;99.90
22578;DHT22;11455;52.390;13.028;2022-12-29T14:47:16;11.70;99.90
22578;DHT22;11455;52.390;13.028;2022-12-29T14:49:43;11.70;99.90
22578;DHT22;11455;52.390;13.028;2022-12-29T14:52:23;11.70;99.90
22578;DHT22;11455;52.390;13.028;2022-12-29T14:54:51;11.70;99.90
22578;DHT22;11455;52.390;13.028;2022-12-29T14:57:27;11.70;99.90
22578;DHT22;11455;52.390;13.028;2022-12-29T14:59:56;11.80;99.90
22578;DHT22;11455;52.390;13.028;2022-12-29T15:02:24;11.90;99.90
22578;DHT22;11455;52.390;13.028;2022-12-29T15:04:50;11.90;99.90
22578;DHT22;11455;52.390;13.028;2022-12-29T15:07:17;11.90;99.90
22578;DHT22;11455;52.390;13.028;2022-12-29T15:10:03;11.90;99.90
22578;DHT22;11455;52.390;13.028;2022-12-29T15:12:32;11.80;99.90
22578;DHT22;11455;52.390;13.028;2022-12-29T15:15:10;11.80;1.00
22578;DHT22;11455;52.390;13.028;2022-12-29T15:17:42;11.80;99.90
22578;DHT22;11455;52.390;13.028;2022-12-29T15:20:21;11.80;99.90
22578;DHT22;11455;52.390;13.028;2022-12-29T15:22:52;11.90;99.90
22578;DHT22;11455;52.390;13.028;2022-12-29T15:25:18;11.90;99.90
22578;DHT22;11455;52.390;13.028;2022-12-29T15:27:48;11.80;99.90
22578;DHT22;11455;52.390;13.028;2022-12-29T15:30:14;11.90;99.90
22578;DHT22;11455;52.390;13.028;2022-12-29T15:32:42;11.90;99.90
22578;DHT22;11455;52.390;13.028;2022-12-29T15:35:25;11.90;99.90
22578;DHT22;11455;52.390;13.028;2022-12-29T15:37:51;11.90;99.90
22578;DHT22;11455;52.390;13.028;2022-12-29T15:43:01;11.90;99.90
22578;DHT22;11455;52.390;13.028;2022-12-29T15:45:32;11.80;99.90
22578;DHT22;11455;52.390;13.028;2022-12-29T15:47:58;11.80;99.90
22578;DHT22;11455;52.390;13.028;2022-12-29T15:50:28;11.80;99.90
22578;DHT22;11455;52.390;13.028;2022-12-29T15:52:55;11.80;99.90
22578;DHT22;11455;52.390;13.028;2022-12-29T15:55:24;11.80;99.90
22578;DHT22;11455;52.390;13.028;2022-12-29T15:57:55;11.70;99.90
22578;DHT22;11455;52.390;13.028;2022-12-29T16:00:28;11.70;99.90
22578;DHT22;11455;52.390;13.028;2022-12-29T16:02:57;11.80;99.90
22578;DHT22;11455;52.390;13.028;2022-12-29T16:05:24;11.70;99.90
22578;DHT22;11455;52.390;13.028;2022-12-29T16:07:54;11.70;99.90
22578;DHT22;11455;52.390;13.028;2022-12-29T16:10:31;11.70;99.90
22578;DHT22;11455;52.390;13.028;2022-12-29T16:15:35;11.80;99.90
22578;DHT22;11455;52.390;13.028;2022-12-29T16:18:01;11.80;80.50
22578;DHT22;11455;52.390;13.028;2022-12-29T16:21:00;11.80;58.70
22578;DHT22;11455;52.390;13.028;2022-12-29T16:23:27;11.80;33.10
22578;DHT22;11455;52.390;13.028;2022-12-29T16:25:53;11.80;30.50
22578;DHT22;11455;52.390;13.028;2022-12-29T16:28:23;11.80;27.90
22578;DHT22;11455;52.390;13.028;2022-12-29T16:30:57;11.80;15.10
22578;DHT22;11455;52.390;13.028;2022-12-29T16:38:49;11.80;1.00
22578;DHT22;11455;52.390;13.028;2022-12-29T16:41:28;11.70;1.00
22578;DHT22;11455;52.390;13.028;2022-12-29T16:44:16;11.70;1.00
22578;DHT22;11455;52.390;13.028;2022-12-29T16:49:26;11.70;1.00
22578;DHT22;11455;52.390;13.028;2022-12-29T16:51:52;11.70;1.00
22578;DHT22;11455;52.390;13.028;2022-12-29T16:54:41;11.70;1.00
22578;DHT22;11455;52.390;13.028;2022-12-29T16:57:06;11.70;1.00
22578;DHT22;11455;52.390;13.028;2022-12-29T16:59:39;11.70;1.00
22578;DHT22;11455;52.390;13.028;2022-12-29T17:02:15;11.70;1.00
22578;DHT22;11455;52.390;13.028;2022-12-29T17:04:41;11.70;1.00
22578;DHT22;11455;52.390;13.028;2022-12-29T17:07:17;11.70;1.00
22578;DHT22;11455;52.390;13.028;2022-12-29T17:09:45;11.80;1.00
22578;DHT22;11455;52.390;13.028;2022-12-29T17:12:15;11.70;1.00
22578;DHT22;11455;52.390;13.028;2022-12-29T17:14:49;11.70;1.00
22578;DHT22;11455;52.390;13.028;2022-12-29T17:19:56;11.70;1.00
22578;DHT22;11455;52.390;13.028;2022-12-29T17:22:25;11.70;1.00
22578;DHT22;11455;52.390;13.028;2022-12-29T17:25:00;11.70;1.00
22578;DHT22;11455;52.390;13.028;2022-12-29T17:27:28;11.70;1.00
22578;DHT22;11455;52.390;13.028;2022-12-29T17:29:55;11.70;1.00
22578;DHT22;11455;52.390;13.028;2022-12-29T17:32:22;11.80;1.00
22578;DHT22;11455;52.390;13.028;2022-12-29T17:34:47;11.70;1.00
22578;DHT22;11455;52.390;13.028;2022-12-29T17:39:48;11.70;1.00
22578;DHT22;11455;52.390;13.028;2022-12-29T17:42:14;11.70;1.00
22578;DHT22;11455;52.390;13.028;2022-12-29T17:44:39;11.60;1.00
22578;DHT22;11455;52.390;13.028;2022-12-29T17:47:07;11.70;1.00
22578;DHT22;11455;52.390;13.028;2022-12-29T17:49:33;11.70;1.00
22578;DHT22;11455;52.390;13.028;2022-12-29T17:51:59;11.70;1.00
22578;DHT22;11455;52.390;13.028;2022-12-29T17:54:25;11.70;1.00
22578;DHT22;11455;52.390;13.028;2022-12-29T17:56:51;11.60;1.00
22578;DHT22;11455;52.390;13.028;2022-12-29T17:59:17;11.60;1.00
22578;DHT22;11455;52.390;13.028;2022-12-29T18:01:43;11.70;1.00
22578;DHT22;11455;52.390;13.028;2022-12-29T18:04:13;11.60;1.00
22578;DHT22;11455;52.390;13.028;2022-12-29T18:06:40;11.60;1.00
22578;DHT22;11455;52.390;13.028;2022-12-29T18:09:06;11.60;1.00
22578;DHT22;11455;52.390;13.028;2022-12-29T18:11:34;11.60;1.00
22578;DHT22;11455;52.390;13.028;2022-12-29T18:14:00;11.60;1.00
22578;DHT22;11455;52.390;13.028;2022-12-29T18:16:26;11.60;1.00